Time;durP1;ratioP1;P1;durP2;ratioP2;P2;SDS_P1;SDS_P2;PMS_P1;PMS_P2;Temp;Humidity;BMP_temperature;BMP_pressure;BME280_temperature;BME280_humidity;BME280_pressure;Samples;Min_cycle;Max_cycle;Signal;HPM_P1;HPM_P2
2022/03/29 00:00:25;;;;;;;15.30;11.83;;;;;;;;;;5070748;28;20269;-80
2022/03/29 00:02:52;;;;;;;13.83;11.43;;;;;;;;;;5063377;28;20197;-81
2022/03/29 00:05:19;;;;;;;14.73;11.30;;;;;;;;;;5070692;28;20236;-80
2022/03/29 00:07:46;;;;;;;13.60;12.20;;;;;;;;;;5069030;28;20209;-79
2022/03/29 00:10:15;;;;;;;16.73;12.60;;;;;;;;;;5063674;28;20201;-80
2022/03/29 00:12:42;;;;;;;15.57;11.93;;;;;;;;;;5069726;28;20205;-80
2022/03/29 00:15:10;;;;;;;14.27;12.10;;;;;;;;;;5057570;28;20302;-80
2022/03/29 00:17:37;;;;;;;15.53;12.23;;;;;;;;;;5071041;28;20221;-80
2022/03/29 00:20:05;;;;;;;16.17;12.07;;;;;;;;;;5065248;28;20202;-80
2022/03/29 00:22:32;;;;;;;15.30;12.43;;;;;;;;;;5069689;28;20227;-80
2022/03/29 00:24:59;;;;;;;16.30;12.20;;;;;;;;;;5065954;28;20255;-80
2022/03/29 00:27:28;;;;;;;14.60;12.20;;;;;;;;;;5071312;28;20204;-80
2022/03/29 00:29:55;;;;;;;14.60;12.23;;;;;;;;;;5068581;28;20201;-80
2022/03/29 00:32:23;;;;;;;14.03;11.30;;;;;;;;;;5072992;28;20193;-80
2022/03/29 00:34:50;;;;;;;13.63;11.50;;;;;;;;;;5071557;28;20231;-80
2022/03/29 00:37:17;;;;;;;14.27;11.27;;;;;;;;;;5073615;28;20240;-80
2022/03/29 00:39:45;;;;;;;15.77;11.50;;;;;;;;;;5073195;28;20255;-80
2022/03/29 00:42:12;;;;;;;13.70;10.80;;;;;;;;;;5072880;28;20357;-80
2022/03/29 00:47:13;;;;;;;14.80;10.63;;;;;;;;;;5060555;28;20209;-84
2022/03/29 00:49:40;;;;;;;12.97;11.13;;;;;;;;;;5056497;28;20204;-84
2022/03/29 00:52:08;;;;;;;12.37;10.93;;;;;;;;;;5061549;28;20225;-84
2022/03/29 00:54:36;;;;;;;15.43;11.20;;;;;;;;;;5045860;28;20206;-85
2022/03/29 00:57:05;;;;;;;12.87;11.00;;;;;;;;;;5062018;28;20292;-85
2022/03/29 00:59:32;;;;;;;14.10;11.37;;;;;;;;;;5059749;28;20201;-85
2022/03/29 01:02:00;;;;;;;13.77;10.70;;;;;;;;;;5061355;28;20216;-84
2022/03/29 01:04:29;;;;;;;16.60;11.93;;;;;;;;;;5057939;28;20213;-85
2022/03/29 01:06:58;;;;;;;13.87;11.33;;;;;;;;;;5062851;28;20224;-84
2022/03/29 01:09:25;;;;;;;13.33;11.20;;;;;;;;;;5060066;28;20205;-84
2022/03/29 01:11:53;;;;;;;13.50;11.27;;;;;;;;;;5060358;28;20268;-85
2022/03/29 01:14:21;;;;;;;16.27;11.23;;;;;;;;;;5061067;28;20269;-84
2022/03/29 01:19:35;;;;;;;12.63;10.93;;;;;;;;;;5054073;28;20209;-85
2022/03/29 01:22:05;;;;;;;13.87;10.93;;;;;;;;;;5058802;28;20205;-84
2022/03/29 01:24:36;;;;;;;13.30;11.07;;;;;;;;;;5058741;28;20228;-85
2022/03/29 01:27:04;;;;;;;13.03;10.30;;;;;;;;;;5057766;28;20197;-85
2022/03/29 01:29:32;;;;;;;11.10;9.93;;;;;;;;;;5060545;28;20213;-84
2022/03/29 01:32:00;;;;;;;13.10;11.07;;;;;;;;;;5059573;28;20265;-85
2022/03/29 01:34:27;;;;;;;12.90;10.77;;;;;;;;;;5061321;28;20222;-85
2022/03/29 01:36:54;;;;;;;13.37;10.87;;;;;;;;;;5059941;28;20293;-85
2022/03/29 01:39:23;;;;;;;13.07;11.17;;;;;;;;;;5057780;28;20206;-85
2022/03/29 01:41:51;;;;;;;14.23;10.70;;;;;;;;;;5055034;28;20299;-84
2022/03/29 01:44:18;;;;;;;13.20;10.77;;;;;;;;;;5055686;28;20209;-84
2022/03/29 01:46:45;;;;;;;13.10;10.13;;;;;;;;;;5064042;28;20296;-84
2022/03/29 01:49:12;;;;;;;11.77;10.27;;;;;;;;;;5061712;28;20217;-83
2022/03/29 01:51:39;;;;;;;12.27;9.37;;;;;;;;;;5061171;28;20205;-84
2022/03/29 01:54:07;;;;;;;14.97;10.03;;;;;;;;;;5059862;28;20256;-83
2022/03/29 01:56:36;;;;;;;11.87;10.00;;;;;;;;;;5060540;28;20695;-83
2022/03/29 01:59:06;;;;;;;11.63;10.23;;;;;;;;;;5058753;28;20205;-83
2022/03/29 02:01:39;;;;;;;12.33;9.67;;;;;;;;;;5060850;28;20209;-83
2022/03/29 02:04:06;;;;;;;11.57;9.97;;;;;;;;;;5057876;28;20201;-83
2022/03/29 02:06:33;;;;;;;11.93;10.40;;;;;;;;;;5061594;28;20225;-83
2022/03/29 02:09:01;;;;;;;12.63;10.03;;;;;;;;;;5061564;28;20236;-83
2022/03/29 02:11:28;;;;;;;12.27;10.37;;;;;;;;;;5060764;28;20209;-83
2022/03/29 02:13:57;;;;;;;13.40;10.53;;;;;;;;;;5062854;28;20240;-83
2022/03/29 02:16:25;;;;;;;13.90;10.73;;;;;;;;;;5074794;28;20217;-83
2022/03/29 02:18:52;;;;;;;14.47;10.60;;;;;;;;;;5060116;28;20224;-83
2022/03/29 02:21:19;;;;;;;11.77;9.97;;;;;;;;;;5050611;28;20206;-82
2022/03/29 02:23:46;;;;;;;12.37;10.30;;;;;;;;;;5057458;28;20209;-83
2022/03/29 02:26:14;;;;;;;14.43;10.13;;;;;;;;;;5056818;28;20243;-83
2022/03/29 02:28:41;;;;;;;12.43;10.33;;;;;;;;;;5058194;28;20205;-84
2022/03/29 02:31:11;;;;;;;14.10;10.90;;;;;;;;;;5056758;28;20229;-84
2022/03/29 02:33:38;;;;;;;14.37;10.10;;;;;;;;;;5059114;28;20213;-83
2022/03/29 02:36:05;;;;;;;12.43;10.07;;;;;;;;;;5056538;28;20270;-84
2022/03/29 02:38:32;;;;;;;12.53;10.80;;;;;;;;;;5062184;28;20229;-84
2022/03/29 02:41:00;;;;;;;12.80;11.00;;;;;;;;;;5062794;28;20236;-83
2022/03/29 02:43:27;;;;;;;12.67;10.23;;;;;;;;;;5062637;28;20212;-84
2022/03/29 02:45:54;;;;;;;13.67;10.20;;;;;;;;;;5066269;28;20725;-84
2022/03/29 02:48:23;;;;;;;11.90;9.90;;;;;;;;;;5060502;28;20255;-85
2022/03/29 02:50:51;;;;;;;15.10;11.47;;;;;;;;;;5065104;28;20201;-84
2022/03/29 02:53:18;;;;;;;14.57;10.97;;;;;;;;;;5057025;28;20218;-83
2022/03/29 02:55:46;;;;;;;13.47;10.37;;;;;;;;;;5057054;28;20229;-84
2022/03/29 02:58:13;;;;;;;13.57;10.90;;;;;;;;;;5073672;28;20311;-85
2022/03/29 03:00:40;;;;;;;14.80;11.60;;;;;;;;;;5060900;28;20262;-84
2022/03/29 03:03:07;;;;;;;12.07;10.60;;;;;;;;;;5061402;28;20236;-84
2022/03/29 03:05:36;;;;;;;12.57;10.87;;;;;;;;;;5062464;28;20245;-83
2022/03/29 03:08:03;;;;;;;14.43;11.50;;;;;;;;;;5063524;28;20205;-84
2022/03/29 03:10:31;;;;;;;12.43;10.87;;;;;;;;;;5058413;28;20194;-84
2022/03/29 03:12:59;;;;;;;13.77;11.37;;;;;;;;;;5063058;28;20212;-84
2022/03/29 03:15:27;;;;;;;15.20;10.97;;;;;;;;;;5062097;28;20252;-83
2022/03/29 03:17:55;;;;;;;13.60;11.07;;;;;;;;;;5059487;28;20217;-83
2022/03/29 03:20:22;;;;;;;14.83;11.07;;;;;;;;;;5065064;28;20204;-84
2022/03/29 03:22:51;;;;;;;17.40;11.03;;;;;;;;;;5063113;28;20201;-84
2022/03/29 03:25:19;;;;;;;14.00;10.83;;;;;;;;;;5065341;28;20298;-84
2022/03/29 03:27:46;;;;;;;13.67;11.07;;;;;;;;;;5059217;28;20227;-84
2022/03/29 03:30:14;;;;;;;11.87;10.20;;;;;;;;;;5065858;28;20201;-83
2022/03/29 03:32:42;;;;;;;12.60;10.93;;;;;;;;;;5062059;28;20201;-83
2022/03/29 03:35:10;;;;;;;13.57;10.43;;;;;;;;;;5062904;28;20268;-83
2022/03/29 03:37:37;;;;;;;15.33;11.23;;;;;;;;;;5059782;28;20281;-83
2022/03/29 03:40:07;;;;;;;15.63;10.63;;;;;;;;;;5062402;28;20278;-83
2022/03/29 03:42:35;;;;;;;14.53;11.03;;;;;;;;;;5061493;28;20201;-83
2022/03/29 03:45:03;;;;;;;14.43;10.90;;;;;;;;;;5062097;28;20264;-83
2022/03/29 03:47:31;;;;;;;13.60;10.73;;;;;;;;;;5061778;28;20208;-83
2022/03/29 03:49:58;;;;;;;13.77;10.90;;;;;;;;;;5066893;28;20200;-83
2022/03/29 03:52:26;;;;;;;13.00;10.83;;;;;;;;;;5063406;28;20718;-83
2022/03/29 03:54:56;;;;;;;16.20;11.30;;;;;;;;;;5050473;28;20225;-83
2022/03/29 03:57:25;;;;;;;16.87;11.20;;;;;;;;;;5062567;28;20236;-83
2022/03/29 03:59:55;;;;;;;13.73;10.63;;;;;;;;;;5059946;28;20228;-83
2022/03/29 04:02:23;;;;;;;16.83;11.80;;;;;;;;;;5059209;28;20273;-83
2022/03/29 04:04:50;;;;;;;14.53;12.10;;;;;;;;;;5059410;28;20246;-83
2022/03/29 04:07:18;;;;;;;19.63;11.70;;;;;;;;;;5061742;28;20209;-83
2022/03/29 04:09:45;;;;;;;13.53;10.87;;;;;;;;;;5062123;28;20209;-83
2022/03/29 04:12:12;;;;;;;15.73;11.40;;;;;;;;;;5060932;28;20216;-83
2022/03/29 04:14:41;;;;;;;14.80;11.27;;;;;;;;;;5058152;28;20217;-83
2022/03/29 04:17:10;;;;;;;12.03;10.67;;;;;;;;;;5062975;28;20205;-83
2022/03/29 04:19:37;;;;;;;15.10;11.00;;;;;;;;;;5062470;28;20284;-83
2022/03/29 04:22:05;;;;;;;16.57;10.93;;;;;;;;;;5064621;28;20205;-83
2022/03/29 04:24:32;;;;;;;15.27;10.30;;;;;;;;;;5062081;28;20205;-84
2022/03/29 04:27:00;;;;;;;13.40;11.07;;;;;;;;;;5063195;28;20213;-83
2022/03/29 04:29:27;;;;;;;13.03;10.57;;;;;;;;;;5060694;28;20193;-83
2022/03/29 04:31:55;;;;;;;15.70;11.23;;;;;;;;;;5046903;28;20227;-82
2022/03/29 04:34:23;;;;;;;13.80;10.93;;;;;;;;;;5051643;28;20216;-84
2022/03/29 04:39:56;;;;;;;13.90;10.93;;;;;;;;;;4996101;28;20238;-83
2022/03/29 04:42:23;;;;;;;17.30;10.57;;;;;;;;;;4995511;28;20231;-83
2022/03/29 04:44:50;;;;;;;15.60;11.33;;;;;;;;;;4995882;28;20199;-83
2022/03/29 04:47:22;;;;;;;18.60;11.70;;;;;;;;;;4995803;28;20203;-83
2022/03/29 04:50:06;;;;;;;15.10;11.50;;;;;;;;;;4992365;28;20200;-89
